Time;durP1;ratioP1;P1;durP2;ratioP2;P2;SDS_P1;SDS_P2;PMS_P1;PMS_P2;Temp;Humidity;BMP_temperature;BMP_pressure;BME280_temperature;BME280_humidity;BME280_pressure;Samples;Min_cycle;Max_cycle;Signal;HPM_P1;HPM_P2
2021/12/20 00:02:20;;;;;;;55.40;24.60;;;;;;;5.23;71.29;99983.72;5121834;28;20513;-68
2021/12/20 00:05:12;;;;;;;64.32;27.27;;;;;;;5.37;70.53;99979.41;5121140;28;20061;-67
2021/12/20 00:08:02;;;;;;;57.45;24.45;;;;;;;5.48;71.06;99981.44;5119094;28;20126;-68
2021/12/20 00:10:52;;;;;;;60.63;25.35;;;;;;;5.46;70.22;99974.56;5123619;28;20062;-67
2021/12/20 00:13:42;;;;;;;57.55;25.27;;;;;;;4.91;72.15;99975.88;5130579;28;20142;-67
2021/12/20 00:16:32;;;;;;;58.00;26.20;;;;;;;5.13;71.40;99952.72;5126539;28;20429;-68
2021/12/20 00:19:23;;;;;;;56.85;25.23;;;;;;;5.38;71.06;99944.28;5117351;28;20074;-67
2021/12/20 00:22:13;;;;;;;58.95;25.17;;;;;;;5.13;70.58;99942.22;5126728;28;20066;-67
2021/12/20 00:25:04;;;;;;;56.80;24.25;;;;;;;4.88;72.28;99957.63;5127675;28;20070;-67
2021/12/20 00:27:54;;;;;;;61.28;26.05;;;;;;;5.22;71.67;99953.13;5123468;28;20050;-68
2021/12/20 00:30:45;;;;;;;57.63;24.83;;;;;;;5.38;70.31;99941.66;5130804;28;20577;-67
2021/12/20 00:33:35;;;;;;;57.40;25.20;;;;;;;5.08;71.59;99949.50;5121418;28;20410;-67
2021/12/20 00:36:27;;;;;;;60.53;24.95;;;;;;;5.29;70.99;99938.69;5124900;28;20082;-67
2021/12/20 00:42:26;;;;;;;58.10;26.65;;;;;;;5.40;70.66;99936.31;5123617;28;20540;-68
2021/12/20 00:45:17;;;;;;;59.03;25.00;;;;;;;5.22;71.54;99948.72;5127457;28;20133;-68
2021/12/20 00:48:07;;;;;;;58.28;25.88;;;;;;;5.21;71.29;99948.81;5122992;28;20405;-68
2021/12/20 00:51:00;;;;;;;59.92;26.58;;;;;;;5.26;71.11;99944.13;5125947;28;20054;-68
2021/12/20 00:53:50;;;;;;;59.30;25.52;;;;;;;5.46;70.93;99943.81;5122262;28;20125;-68
2021/12/20 00:56:41;;;;;;;60.63;25.30;;;;;;;5.40;70.59;99952.09;5130712;28;20061;-68
2021/12/20 00:59:31;;;;;;;67.80;26.95;;;;;;;5.23;71.08;99934.66;5127160;28;20101;-68
2021/12/20 01:02:21;;;;;;;60.60;26.15;;;;;;;5.34;70.26;99957.69;5131607;28;20062;-68
2021/12/20 01:05:11;;;;;;;55.30;24.75;;;;;;;5.26;70.70;99941.50;5121860;28;20517;-68
2021/12/20 01:08:04;;;;;;;60.67;26.38;;;;;;;5.39;70.49;99938.06;5125181;28;20102;-68
2021/12/20 01:10:55;;;;;;;57.95;25.90;;;;;;;5.35;70.89;99941.81;5124151;28;20193;-68
2021/12/20 01:13:45;;;;;;;60.00;25.73;;;;;;;5.33;70.33;99933.19;5127280;28;20055;-68
2021/12/20 01:16:36;;;;;;;59.55;25.70;;;;;;;5.23;70.79;99931.16;5129313;28;20046;-70
2021/12/20 01:19:26;;;;;;;71.03;27.88;;;;;;;5.23;71.51;99931.16;5123855;28;20086;-68
2021/12/20 01:22:16;;;;;;;66.03;27.65;;;;;;;5.45;70.37;99936.88;5127829;28;20167;-68
2021/12/20 01:25:06;;;;;;;60.00;26.15;;;;;;;5.36;70.73;99940.03;5126271;28;20045;-68
2021/12/20 01:27:57;;;;;;;62.78;27.00;;;;;;;5.33;71.02;99945.47;5121794;28;20711;-68
2021/12/20 01:30:47;;;;;;;62.85;26.73;;;;;;;5.43;70.95;99936.16;5113015;28;20121;-68
2021/12/20 01:33:37;;;;;;;68.25;27.20;;;;;;;5.51;69.86;99944.44;5120380;28;20045;-67
2021/12/20 01:36:27;;;;;;;61.25;26.00;;;;;;;5.44;71.04;99939.63;5120119;28;20121;-67
2021/12/20 01:39:17;;;;;;;62.35;26.02;;;;;;;5.31;71.02;99928.94;5120853;28;20054;-67
2021/12/20 01:42:08;;;;;;;64.65;25.85;;;;;;;5.37;71.04;99921.56;5119204;28;20417;-67
2021/12/20 01:44:58;;;;;;;57.35;25.25;;;;;;;5.29;71.37;99915.88;5120176;28;20039;-67
2021/12/20 01:47:53;;;;;;;64.57;27.77;;;;;;;5.23;71.54;99916.25;5125879;28;20051;-67
2021/12/20 01:53:40;;;;;;;65.00;27.38;;;;;;;5.35;70.94;99920.78;5126163;28;20182;-67
2021/12/20 01:56:33;;;;;;;66.65;27.15;;;;;;;5.40;70.47;99916.13;5130399;28;20049;-67
2021/12/20 01:59:23;;;;;;;64.72;26.35;;;;;;;5.43;70.43;99915.09;5121756;28;20062;-67
2021/12/20 02:02:13;;;;;;;66.68;26.55;;;;;;;5.42;70.27;99930.00;5123873;28;20169;-67
2021/12/20 02:05:15;;;;;;;66.82;26.42;;;;;;;5.33;70.74;99932.31;5120306;28;20086;-67
2021/12/20 02:08:21;;;;;;;61.13;25.55;;;;;;;5.29;70.98;99943.94;5120107;28;20722;-67
2021/12/20 02:11:12;;;;;;;65.40;26.45;;;;;;;5.33;70.58;99921.81;5121284;28;20078;-69
2021/12/20 02:14:03;;;;;;;64.65;25.80;;;;;;;5.30;70.77;99928.09;5129379;28;20057;-67
2021/12/20 02:16:53;;;;;;;65.22;26.20;;;;;;;5.31;70.70;99928.94;5128392;28;20463;-67
2021/12/20 02:19:43;;;;;;;61.25;26.20;;;;;;;5.09;70.55;99898.59;5123273;28;20050;-67
2021/12/20 02:22:33;;;;;;;64.78;25.52;;;;;;;5.21;71.21;99933.03;5125290;28;20062;-66
2021/12/20 02:25:25;;;;;;;59.72;25.75;;;;;;;5.22;70.47;99934.72;5126839;28;20050;-69
2021/12/20 02:28:18;;;;;;;61.92;25.75;;;;;;;5.14;71.42;99927.28;5125809;28;20410;-67
2021/12/20 02:37:28;;;;;;;69.65;27.17;;;;;;;4.97;71.98;99915.09;5116762;28;20136;-67
2021/12/20 02:40:19;;;;;;;59.92;25.27;;;;;;;5.15;71.56;99906.16;5117969;28;20069;-67
2021/12/20 02:43:11;;;;;;;67.75;27.23;;;;;;;5.26;71.81;99910.78;5125947;28;20194;-67
2021/12/20 02:46:04;;;;;;;62.50;26.85;;;;;;;5.16;71.86;99920.13;5123020;28;20541;-67
2021/12/20 02:48:55;;;;;;;60.92;25.00;;;;;;;5.22;71.66;99908.44;5122496;28;20130;-67
2021/12/20 02:51:50;;;;;;;72.13;27.55;;;;;;;5.20;71.81;99913.78;5126112;28;20533;-67
2021/12/20 02:54:40;;;;;;;63.40;27.30;;;;;;;5.24;71.06;99909.19;5120115;28;20106;-69
2021/12/20 02:57:32;;;;;;;66.13;28.23;;;;;;;5.32;70.87;99912.22;5126383;28;20569;-69
2021/12/20 03:00:22;;;;;;;67.88;27.38;;;;;;;5.56;70.40;99897.66;5118457;28;20054;-69
2021/12/20 03:03:12;;;;;;;72.45;28.15;;;;;;;5.49;69.84;99880.53;5122314;28;20062;-67
2021/12/20 03:06:13;;;;;;;68.00;28.35;;;;;;;5.29;71.83;99894.00;5118579;28;20133;-69
2021/12/20 03:09:05;;;;;;;72.95;29.95;;;;;;;5.31;71.65;99902.66;5119986;28;20082;-69
2021/12/20 03:11:58;;;;;;;65.93;27.42;;;;;;;5.19;72.18;99901.56;5122606;28;20161;-69
2021/12/20 03:14:51;;;;;;;68.15;27.83;;;;;;;5.17;71.44;99901.66;5122827;28;20051;-69
2021/12/20 03:17:41;;;;;;;66.63;27.42;;;;;;;5.17;71.04;99900.81;5122026;28;20043;-69
2021/12/20 03:20:31;;;;;;;70.57;28.90;;;;;;;5.07;71.62;99894.38;5123412;28;20055;-68
2021/12/20 03:23:22;;;;;;;79.30;29.08;;;;;;;5.20;71.81;99895.38;5117250;28;20055;-67
2021/12/20 03:26:12;;;;;;;69.88;28.88;;;;;;;5.17;71.69;99903.44;5125827;28;20505;-69
2021/12/20 03:29:03;;;;;;;72.18;28.48;;;;;;;5.06;71.69;99893.50;5118129;28;20078;-68
2021/12/20 03:31:54;;;;;;;68.68;27.88;;;;;;;5.12;72.35;99911.56;5129118;28;20063;-69
2021/12/20 03:34:44;;;;;;;64.10;26.48;;;;;;;4.99;71.73;99879.03;5123035;28;20041;-67
2021/12/20 03:37:34;;;;;;;70.50;27.50;;;;;;;5.17;71.87;99895.56;5127178;28;20046;-67
2021/12/20 03:40:24;;;;;;;87.03;32.72;;;;;;;5.19;71.88;99897.13;5124192;28;20719;-69
2021/12/20 03:43:17;;;;;;;78.22;31.08;;;;;;;5.16;72.03;99884.16;5122640;28;20043;-67
2021/12/20 03:46:07;;;;;;;70.05;28.15;;;;;;;5.20;71.76;99895.38;5128258;28;20046;-69
2021/12/20 03:48:57;;;;;;;77.28;28.83;;;;;;;5.07;72.60;99905.75;5122470;28;20146;-69
2021/12/20 03:51:48;;;;;;;77.93;30.90;;;;;;;5.14;72.93;99899.19;5134558;28;20055;-69
2021/12/20 03:54:38;;;;;;;76.00;29.45;;;;;;;5.15;72.46;99892.16;5125182;28;20039;-69
2021/12/20 03:57:27;;;;;;;76.70;29.80;;;;;;;5.14;71.92;99885.22;5241718;22;20762;-67
2021/12/20 04:00:17;;;;;;;77.15;29.75;;;;;;;5.21;72.73;99897.06;5217112;28;20144;-66
2021/12/20 04:03:12;;;;;;;72.57;29.15;;;;;;;5.22;72.22;99887.41;5218466;28;20075;-67
2021/12/20 04:06:05;;;;;;;75.15;29.73;;;;;;;5.31;71.90;99892.13;5215141;28;20052;-68
2021/12/20 04:08:55;;;;;;;70.55;28.95;;;;;;;5.35;72.40;99888.38;5195088;28;20049;-68
2021/12/20 04:11:44;;;;;;;76.70;30.33;;;;;;;5.36;71.77;99888.31;5197141;28;20056;-65
2021/12/20 04:14:34;;;;;;;72.38;28.73;;;;;;;5.30;72.18;99885.19;5196437;28;20057;-68
2021/12/20 04:17:24;;;;;;;75.60;28.45;;;;;;;5.14;72.18;99901.84;5194591;28;20046;-68
2021/12/20 04:20:15;;;;;;;74.68;29.95;;;;;;;5.33;71.75;99903.38;5196744;28;20048;-67
2021/12/20 04:23:05;;;;;;;68.50;28.17;;;;;;;5.21;71.93;99898.84;5196655;28;20121;-67
2021/12/20 04:25:56;;;;;;;69.63;28.40;;;;;;;5.21;71.48;99885.72;5196816;28;20511;-66
2021/12/20 04:28:46;;;;;;;73.15;28.08;;;;;;;5.24;72.41;99894.28;5198461;28;20045;-66
2021/12/20 04:31:36;;;;;;;71.60;28.17;;;;;;;5.30;71.62;99903.59;5197499;28;20176;-68
2021/12/20 04:34:27;;;;;;;72.25;28.25;;;;;;;5.32;71.55;99899.91;5198307;28;20048;-66
2021/12/20 04:37:17;;;;;;;72.38;29.40;;;;;;;5.34;71.78;99897.22;5190657;28;20044;-66
2021/12/20 04:40:11;;;;;;;72.80;28.70;;;;;;;5.30;71.18;99896.56;5195224;28;20131;-66
2021/12/20 04:43:01;;;;;;;71.30;27.48;;;;;;;5.16;72.20;99883.31;5191680;28;20432;-66
2021/12/20 04:45:51;;;;;;;76.47;28.55;;;;;;;5.18;72.53;99910.38;5197044;28;20415;-65
2021/12/20 04:48:41;;;;;;;72.85;28.05;;;;;;;5.19;72.25;99904.19;5197724;28;20115;-66
2021/12/20 04:51:31;;;;;;;67.30;28.50;;;;;;;5.21;72.01;99907.59;5196888;28;20056;-67
2021/12/20 04:54:22;;;;;;;75.32;28.38;;;;;;;5.36;71.38;99916.38;5197146;28;20064;-66
2021/12/20 04:57:12;;;;;;;73.47;29.30;;;;;;;5.26;71.42;99895.00;5194198;28;20053;-65
2021/12/20 05:00:11;;;;;;;73.43;27.30;;;;;;;5.32;71.60;99912.22;5195260;28;20081;-66
2021/12/20 05:03:02;;;;;;;74.05;29.27;;;;;;;5.09;72.44;99924.88;5193563;28;20111;-66
2021/12/20 05:05:52;;;;;;;68.85;28.15;;;;;;;5.16;71.84;99896.47;5196359;28;20187;-68
2021/12/20 05:08:50;;;;;;;78.78;28.45;;;;;;;5.29;71.84;99909.78;5180022;28;20056;-65
2021/12/20 05:11:48;;;;;;;73.28;27.75;;;;;;;5.19;71.84;99906.81;5176844;28;20116;-66
2021/12/20 05:14:40;;;;;;;63.15;27.02;;;;;;;5.22;71.60;99908.44;5183347;28;20057;-67
2021/12/20 05:17:30;;;;;;;68.15;27.20;;;;;;;5.22;71.80;99911.06;5176314;28;20081;-67
2021/12/20 05:20:21;;;;;;;70.38;27.88;;;;;;;5.21;71.70;99912.00;5183084;28;20053;-67
2021/12/20 05:23:11;;;;;;;76.90;28.20;;;;;;;5.11;72.36;99901.16;5182677;28;20045;-66
2021/12/20 05:26:02;;;;;;;77.93;28.30;;;;;;;5.13;72.69;99902.78;5180933;28;20077;-68
2021/12/20 05:28:54;;;;;;;68.82;28.13;;;;;;;5.11;72.27;99906.41;5172373;28;20053;-67
2021/12/20 05:31:45;;;;;;;644.50;349.38;;;;;;;5.13;72.65;99915.03;5180925;28;20152;-67
2021/12/20 05:34:35;;;;;;;103.32;45.40;;;;;;;5.31;71.56;99913.16;5184234;28;20057;-65
2021/12/20 05:37:25;;;;;;;68.10;27.65;;;;;;;5.26;71.98;99910.78;5180106;28;20079;-66
2021/12/20 05:40:16;;;;;;;415.20;162.98;;;;;;;5.07;71.64;99905.75;5177299;28;20156;-67
2021/12/20 05:43:07;;;;;;;199.60;76.15;;;;;;;5.14;71.99;99919.38;5181277;28;20742;-66
2021/12/20 05:45:57;;;;;;;110.47;41.72;;;;;;;5.19;71.84;99915.53;5180881;28;20056;-68
2021/12/20 05:48:47;;;;;;;74.25;29.58;;;;;;;5.21;72.20;99915.47;5183331;28;20076;-68
2021/12/20 05:51:37;;;;;;;65.00;25.30;;;;;;;5.31;71.58;99919.28;5182094;28;20050;-66
2021/12/20 05:54:27;;;;;;;60.22;25.00;;;;;;;5.17;71.80;99909.53;5182669;28;20042;-68
2021/12/20 05:57:17;;;;;;;64.13;27.65;;;;;;;5.27;71.72;99922.19;5181135;28;20116;-67
2021/12/20 06:00:14;;;;;;;66.60;25.90;;;;;;;5.26;71.98;99921.31;5178337;28;20160;-68
2021/12/20 06:03:09;;;;;;;65.00;24.90;;;;;;;5.20;71.67;99932.19;5181767;28;20229;-68
2021/12/20 06:06:00;;;;;;;64.32;25.77;;;;;;;4.93;71.90;99898.63;5177829;28;20041;-68
2021/12/20 06:08:50;;;;;;;63.03;24.63;;;;;;;5.24;71.85;99932.88;5181664;28;20046;-68
2021/12/20 06:11:40;;;;;;;70.20;27.83;;;;;;;5.36;71.63;99922.50;5181335;28;20050;-68
2021/12/20 06:14:30;;;;;;;72.30;27.38;;;;;;;5.35;71.45;99922.56;5179929;28;20042;-68
2021/12/20 06:17:22;;;;;;;72.68;27.15;;;;;;;5.16;71.83;99926.22;5178770;28;20113;-68
2021/12/20 06:20:13;;;;;;;78.95;29.48;;;;;;;5.43;70.68;99933.50;5180599;28;20069;-67
2021/12/20 06:23:03;;;;;;;81.28;28.67;;;;;;;5.31;70.89;99923.69;5181872;28;20650;-67
2021/12/20 06:25:53;;;;;;;73.10;28.85;;;;;;;5.08;72.27;99927.63;5179860;28;20191;-69
2021/12/20 06:28:43;;;;;;;75.47;28.08;;;;;;;5.15;71.46;99918.44;5182854;28;20111;-68
2021/12/20 06:31:33;;;;;;;75.95;29.85;;;;;;;5.16;71.75;99943.78;5181782;28;20056;-68
2021/12/20 06:34:23;;;;;;;76.90;29.23;;;;;;;5.23;71.54;99950.44;5182725;28;20052;-66
2021/12/20 06:37:15;;;;;;;75.70;28.85;;;;;;;5.17;72.05;99940.25;5184857;28;20050;-66
2021/12/20 06:40:06;;;;;;;71.47;29.10;;;;;;;5.13;72.52;99941.34;5181889;28;20065;-66
2021/12/20 06:42:56;;;;;;;79.30;30.00;;;;;;;5.14;72.11;99948.31;5180543;28;20550;-66
2021/12/20 06:45:46;;;;;;;75.25;31.10;;;;;;;5.17;72.21;99943.72;5177914;28;20129;-66
2021/12/20 06:48:37;;;;;;;80.60;30.25;;;;;;;5.15;72.66;99952.63;5180567;28;20427;-66
2021/12/20 06:51:27;;;;;;;74.00;28.73;;;;;;;5.10;71.79;99939.75;5181125;28;20107;-66
2021/12/20 06:54:19;;;;;;;73.53;28.25;;;;;;;4.95;71.57;99936.19;5187891;28;20099;-66
2021/12/20 06:57:09;;;;;;;71.35;29.10;;;;;;;4.95;72.16;99937.97;5178547;28;20057;-66
2021/12/20 07:00:00;;;;;;;77.97;29.75;;;;;;;4.89;72.36;99943.56;5177614;28;20534;-65
2021/12/20 07:02:51;;;;;;;74.97;28.52;;;;;;;5.01;72.39;99953.41;5181964;28;20053;-66
2021/12/20 07:05:45;;;;;;;65.80;25.30;;;;;;;5.01;71.99;99963.91;5185586;28;20057;-65
2021/12/20 07:08:34;;;;;;;71.75;27.95;;;;;;;5.18;71.19;99965.59;5179374;28;20139;-67
2021/12/20 07:11:24;;;;;;;73.70;28.10;;;;;;;5.15;71.49;99961.34;5179342;28;20762;-67
2021/12/20 07:14:14;;;;;;;65.45;26.33;;;;;;;4.87;72.30;99943.66;5184689;28;20856;-67
2021/12/20 07:17:05;;;;;;;72.75;26.70;;;;;;;4.95;72.24;99969.50;5170911;28;20047;-67
2021/12/20 07:19:57;;;;;;;71.82;26.02;;;;;;;4.98;72.64;99968.50;5177105;28;20177;-65
2021/12/20 07:22:48;;;;;;;62.80;24.83;;;;;;;4.98;71.86;99964.06;5182075;28;20637;-65
2021/12/20 07:25:38;;;;;;;64.55;25.30;;;;;;;5.02;72.21;99976.13;5176766;28;20049;-66
2021/12/20 07:28:28;;;;;;;62.95;26.17;;;;;;;4.85;72.47;99953.38;5179673;28;20068;-66
2021/12/20 07:31:19;;;;;;;72.50;27.15;;;;;;;5.16;71.96;99970.09;5173211;28;20159;-65
2021/12/20 07:34:10;;;;;;;73.65;27.88;;;;;;;5.18;72.08;99981.38;5180855;28;20053;-65
2021/12/20 07:37:00;;;;;;;72.03;26.40;;;;;;;5.23;71.26;99979.34;5181409;28;20053;-65
2021/12/20 07:39:50;;;;;;;72.25;26.83;;;;;;;5.21;71.46;99983.00;5187264;28;20112;-66
2021/12/20 07:42:40;;;;;;;64.55;26.52;;;;;;;5.17;71.55;99977.91;5184210;28;20120;-65
2021/12/20 07:45:30;;;;;;;73.00;28.08;;;;;;;5.17;72.08;99979.69;5181540;28;20065;-67
2021/12/20 07:48:21;;;;;;;64.82;25.85;;;;;;;5.15;71.57;99981.53;5180086;28;20053;-66
2021/12/20 07:51:11;;;;;;;69.28;24.98;;;;;;;4.99;72.45;99954.41;5177836;28;20053;-65
2021/12/20 07:54:02;;;;;;;69.68;27.20;;;;;;;5.15;71.99;99982.38;5184758;28;20471;-65
2021/12/20 07:56:53;;;;;;;75.90;29.00;;;;;;;5.19;72.33;99978.66;5174033;28;20042;-66
2021/12/20 07:59:43;;;;;;;77.78;30.17;;;;;;;5.22;72.14;99990.78;5173603;28;20038;-66
2021/12/20 08:02:33;;;;;;;80.10;29.45;;;;;;;5.24;72.41;99986.28;5176985;28;20049;-66
2021/12/20 08:05:25;;;;;;;83.38;31.35;;;;;;;5.30;71.59;99990.38;5172869;28;20070;-67
2021/12/20 08:08:16;;;;;;;79.80;29.55;;;;;;;5.26;71.80;99983.56;5182461;28;20052;-66
2021/12/20 08:11:06;;;;;;;81.00;30.63;;;;;;;5.23;72.39;99971.47;5179702;28;20121;-66
2021/12/20 08:13:56;;;;;;;85.60;31.17;;;;;;;5.44;72.19;99993.06;5183296;28;21025;-66
2021/12/20 08:16:47;;;;;;;92.97;31.40;;;;;;;5.47;72.29;99986.78;5175672;28;20057;-65
2021/12/20 08:19:37;;;;;;;86.88;31.23;;;;;;;5.45;72.30;99997.38;5173069;28;20060;-65
2021/12/20 08:22:27;;;;;;;90.85;31.05;;;;;;;5.34;72.34;99968.22;5169951;28;20053;-65
2021/12/20 08:25:19;;;;;;;86.43;31.75;;;;;;;5.58;72.09;99987.84;5168812;28;20058;-65
2021/12/20 08:28:09;;;;;;;85.32;31.15;;;;;;;5.72;72.11;99986.22;5169153;28;20038;-65
2021/12/20 08:30:59;;;;;;;82.55;32.63;;;;;;;5.72;71.56;99986.22;5165828;28;20177;-65
2021/12/20 08:33:50;;;;;;;93.35;32.03;;;;;;;5.69;71.37;99984.59;5175150;28;20412;-65
2021/12/20 08:36:40;;;;;;;78.55;30.10;;;;;;;5.72;71.46;99996.75;5177249;28;20565;-66
2021/12/20 08:39:31;;;;;;;83.22;30.35;;;;;;;5.78;71.28;99997.22;5180417;28;20138;-65
2021/12/20 08:42:21;;;;;;;85.28;31.15;;;;;;;5.91;70.72;99997.38;5186500;28;20164;-65
2021/12/20 08:45:13;;;;;;;86.88;31.13;;;;;;;5.84;71.53;99996.03;5184538;28;20069;-65
2021/12/20 08:48:06;;;;;;;86.88;30.98;;;;;;;5.90;71.00;100003.59;5184477;28;20045;-65
2021/12/20 08:50:58;;;;;;;82.10;31.58;;;;;;;5.84;71.76;100006.56;5183718;28;20049;-65
2021/12/20 08:53:49;;;;;;;81.20;30.67;;;;;;;5.90;70.78;100011.47;5173894;28;20582;-65
2021/12/20 08:56:39;;;;;;;84.78;30.45;;;;;;;5.92;70.73;100004.31;5182579;28;20615;-65
2021/12/20 08:59:31;;;;;;;70.93;29.48;;;;;;;6.03;70.68;100012.50;5187695;28;20144;-65
2021/12/20 09:02:21;;;;;;;77.57;31.58;;;;;;;6.01;71.03;100016.13;5179826;28;20139;-65
2021/12/20 09:05:11;;;;;;;76.82;30.35;;;;;;;6.11;70.33;100018.13;5175175;28;20615;-66
2021/12/20 09:08:04;;;;;;;67.13;30.00;;;;;;;6.24;70.55;100025.31;5171333;28;20056;-65
2021/12/20 09:10:54;;;;;;;74.82;29.73;;;;;;;6.11;70.16;100004.13;5181748;28;20064;-66
2021/12/20 09:13:44;;;;;;;76.97;29.30;;;;;;;6.08;70.06;100015.69;5181780;28;20053;-65
2021/12/20 09:16:34;;;;;;;68.88;29.48;;;;;;;6.22;70.59;100022.75;5182359;28;20053;-67
2021/12/20 09:19:24;;;;;;;78.25;29.98;;;;;;;6.19;71.09;100022.97;5181361;28;20506;-67
2021/12/20 09:22:15;;;;;;;77.80;31.75;;;;;;;6.39;70.38;100027.06;5158232;28;20421;-66
2021/12/20 09:25:06;;;;;;;80.95;32.70;;;;;;;6.33;70.72;100032.69;5143701;28;20153;-66
2021/12/20 09:27:57;;;;;;;81.45;33.55;;;;;;;6.41;71.10;100029.59;5137516;28;20045;-67
2021/12/20 09:30:48;;;;;;;77.38;32.63;;;;;;;6.45;70.77;100033.72;5142141;28;20066;-65
2021/12/20 09:33:38;;;;;;;90.53;33.20;;;;;;;6.46;70.08;100038.06;5141375;28;20133;-66
2021/12/20 09:36:29;;;;;;;82.22;32.20;;;;;;;6.51;70.97;100039.47;5141048;28;20193;-66
2021/12/20 09:39:21;;;;;;;78.03;32.65;;;;;;;6.56;69.49;100028.66;5137555;28;20185;-65
2021/12/20 09:42:13;;;;;;;79.07;31.38;;;;;;;6.54;68.79;100039.28;5137639;28;20103;-65
2021/12/20 09:45:03;;;;;;;70.40;29.67;;;;;;;6.50;68.39;100029.88;5137145;28;20046;-66
2021/12/20 09:47:54;;;;;;;72.97;31.02;;;;;;;6.54;68.31;100028.75;5141559;28;20054;-66
2021/12/20 09:50:44;;;;;;;72.95;31.63;;;;;;;6.64;68.81;100033.47;5137623;28;20066;-66
2021/12/20 09:53:34;;;;;;;78.13;31.40;;;;;;;6.35;68.85;100022.88;5138527;28;20070;-67
2021/12/20 09:56:27;;;;;;;67.13;29.77;;;;;;;6.47;69.64;100031.84;5136863;28;20059;-67
2021/12/20 09:59:19;;;;;;;84.95;35.65;;;;;;;6.59;69.73;100026.69;5134816;28;20701;-66
2021/12/20 10:02:10;;;;;;;81.72;33.13;;;;;;;6.66;68.88;100034.22;5135315;28;20058;-67
2021/12/20 10:05:00;;;;;;;74.78;31.70;;;;;;;6.67;69.10;100028.00;5137131;28;20054;-66
2021/12/20 10:07:51;;;;;;;80.03;31.67;;;;;;;6.74;70.13;100014.34;5145500;28;20054;-66
2021/12/20 10:10:43;;;;;;;70.72;28.55;;;;;;;6.79;67.65;100022.84;5139230;28;20061;-66
2021/12/20 10:13:35;;;;;;;74.07;30.85;;;;;;;6.81;67.67;100028.00;5142579;28;20069;-66
2021/12/20 10:16:25;;;;;;;68.63;28.75;;;;;;;6.43;68.17;100025.91;5140007;28;20070;-66
2021/12/20 10:19:34;;;;;;;65.82;29.17;;;;;;;6.78;68.05;100030.81;5143201;28;20091;-66
2021/12/20 10:22:30;;;;;;;73.97;29.63;;;;;;;6.79;68.16;100028.09;5145340;28;20150;-66
2021/12/20 10:25:23;;;;;;;70.30;28.25;;;;;;;6.90;68.46;100029.22;5147571;28;20528;-66
2021/12/20 10:28:16;;;;;;;72.90;30.00;;;;;;;6.96;67.61;100027.06;5141569;28;20043;-67
2021/12/20 10:31:12;;;;;;;70.40;29.05;;;;;;;6.95;68.38;100030.63;5140253;28;20512;-67
2021/12/20 10:34:03;;;;;;;66.35;26.88;;;;;;;6.94;67.91;100028.09;5137440;28;20053;-67
2021/12/20 10:36:57;;;;;;;67.90;29.35;;;;;;;7.04;68.14;100022.13;5141183;28;20683;-68
2021/12/20 10:39:48;;;;;;;64.00;27.42;;;;;;;7.08;67.88;100022.78;5142338;28;20062;-67
2021/12/20 10:42:43;;;;;;;74.97;28.20;;;;;;;7.19;67.85;100014.22;5147582;28;20058;-67
2021/12/20 10:45:33;;;;;;;;;;;;;;;7.02;67.09;100012.66;5148012;28;20052;-67
2021/12/20 10:48:30;;;;;;;68.50;25.05;;;;;;;7.07;67.95;100021.09;5139473;28;19932;-66
2021/12/20 10:51:25;;;;;;;49.67;21.23;;;;;;;7.12;66.42;100013.75;5134967;28;20069;-67
2021/12/20 10:54:18;;;;;;;57.85;23.35;;;;;;;7.22;65.95;100003.47;5142371;28;20125;-68
2021/12/20 10:57:08;;;;;;;51.55;23.08;;;;;;;6.82;66.44;100005.97;5140588;28;20054;-67
2021/12/20 11:00:21;;;;;;;57.92;23.70;;;;;;;6.97;67.19;100010.28;5130501;28;20055;-67
2021/12/20 11:03:24;;;;;;;58.92;22.40;;;;;;;7.24;66.54;100006.84;5139587;28;20616;-67
2021/12/20 11:09:18;;;;;;;38.83;16.35;;;;;;;7.28;65.21;99997.78;5136728;28;20524;-67
2021/12/20 11:12:11;;;;;;;39.13;16.63;;;;;;;7.28;65.37;100000.44;5133856;28;20133;-67
2021/12/20 11:15:08;;;;;;;42.83;15.82;;;;;;;7.38;63.32;100001.53;5135755;28;20051;-67
2021/12/20 11:18:14;;;;;;;36.20;15.10;;;;;;;7.41;63.82;99995.22;5134807;28;20178;-66
2021/12/20 11:21:14;;;;;;;35.95;14.38;;;;;;;7.38;63.59;100000.69;5136946;28;20144;-67
2021/12/20 11:24:12;;;;;;;33.92;13.38;;;;;;;7.38;62.37;99993.59;5137521;28;20189;-67
2021/12/20 11:27:07;;;;;;;29.25;13.43;;;;;;;7.31;62.61;100000.22;5134089;28;20415;-67
2021/12/20 11:29:59;;;;;;;39.10;15.20;;;;;;;7.31;63.36;99992.31;5133866;28;20548;-68
2021/12/20 11:32:50;;;;;;;51.45;20.88;;;;;;;7.23;64.79;99989.34;5139106;28;20054;-69
2021/12/20 11:35:41;;;;;;;25.27;11.45;;;;;;;6.88;61.79;99989.75;5133227;28;20058;-70
2021/12/20 11:38:31;;;;;;;28.25;10.95;;;;;;;6.43;62.94;99990.84;5133524;28;20073;-73
2021/12/20 11:41:21;;;;;;;28.55;11.65;;;;;;;6.65;63.20;99993.81;5134485;28;20227;-70
2021/12/20 11:44:17;;;;;;;30.92;11.50;;;;;;;6.64;62.62;99991.31;5136126;28;20671;-67
2021/12/20 11:47:35;;;;;;;31.60;12.05;;;;;;;6.93;62.12;99986.84;5138297;28;20445;-69
2021/12/20 11:50:33;;;;;;;36.58;14.00;;;;;;;6.74;61.78;99993.25;5139775;28;20047;-71
2021/12/20 11:53:23;;;;;;;27.35;11.18;;;;;;;6.02;64.82;99989.72;5138334;28;20062;-69
2021/12/20 11:56:13;;;;;;;30.92;11.35;;;;;;;5.99;63.92;99978.50;5129509;28;20722;-70
2021/12/20 11:59:04;;;;;;;32.22;12.95;;;;;;;6.30;63.53;99988.09;5132995;28;20182;-70
2021/12/20 12:02:28;;;;;;;32.33;12.32;;;;;;;6.58;61.90;99988.09;5137012;28;20077;-69
2021/12/20 12:05:56;;;;;;;27.27;11.68;;;;;;;6.62;61.49;99987.91;5140825;28;20113;-68
2021/12/20 12:08:49;;;;;;;31.58;11.60;;;;;;;6.63;62.53;99989.63;5130214;28;20049;-69
2021/12/20 12:11:39;;;;;;;28.27;11.35;;;;;;;6.53;61.40;99979.63;5139202;28;20197;-67
2021/12/20 12:14:34;;;;;;;27.90;10.88;;;;;;;6.51;61.83;99983.28;5136274;28;20141;-68
2021/12/20 12:17:58;;;;;;;28.33;10.45;;;;;;;6.53;62.68;99990.16;5160040;23;20472;-83
2021/12/20 12:20:52;;;;;;;24.02;9.60;;;;;;;6.12;61.52;99953.16;5163014;28;20052;-81
2021/12/20 12:23:44;;;;;;;26.98;10.23;;;;;;;6.20;62.23;99986.94;5157455;28;20120;-83
2021/12/20 12:26:39;;;;;;;28.45;10.38;;;;;;;6.19;64.10;99972.06;5155580;28;20535;-82
2021/12/20 12:29:30;;;;;;;28.08;9.77;;;;;;;6.03;63.49;99941.41;5153152;28;20380;-84
2021/12/20 12:32:20;;;;;;;25.38;9.35;;;;;;;6.23;63.17;99979.72;5130301;28;20055;-80
2021/12/20 12:35:51;;;;;;;28.27;10.05;;;;;;;6.31;63.85;99984.50;5157642;28;20217;-83
2021/12/20 12:38:47;;;;;;;24.20;9.18;;;;;;;6.28;61.61;99984.69;5133949;28;20043;-83
2021/12/20 12:41:49;;;;;;;21.08;9.38;;;;;;;6.33;61.86;99965.03;5143698;28;20046;-83
2021/12/20 12:44:51;;;;;;;23.55;9.23;;;;;;;6.46;60.91;99967.78;5157855;28;20413;-83
2021/12/20 12:47:41;;;;;;;22.88;9.73;;;;;;;6.57;60.62;99973.22;5156783;28;20109;-81
2021/12/20 12:50:32;;;;;;;27.95;9.30;;;;;;;6.50;61.16;99969.28;5145998;28;20062;-83
2021/12/20 12:53:43;;;;;;;20.05;8.40;;;;;;;6.46;61.34;99959.03;5154033;28;20069;-81
2021/12/20 12:56:35;;;;;;;24.23;8.25;;;;;;;6.48;61.26;99965.88;5163415;28;21056;-82
2021/12/20 12:59:26;;;;;;;28.42;8.52;;;;;;;6.37;62.05;99935.88;5149202;28;20046;-82
2021/12/20 13:02:20;;;;;;;22.58;8.35;;;;;;;6.73;59.93;99970.50;5145468;28;20537;-80
2021/12/20 13:05:14;;;;;;;26.80;8.50;;;;;;;6.52;60.69;99937.56;5147273;28;20047;-80
2021/12/20 13:08:06;;;;;;;22.08;7.95;;;;;;;6.63;59.54;99953.56;5160989;28;20057;-79
2021/12/20 13:11:00;;;;;;;22.00;7.80;;;;;;;6.57;60.68;99954.78;5149633;28;20060;-82
2021/12/20 13:14:06;;;;;;;30.17;10.48;;;;;;;6.61;60.78;99950.16;5135233;28;20066;-80
2021/12/20 13:16:59;;;;;;;29.17;8.77;;;;;;;6.47;60.65;99932.56;5147994;28;20049;-82
2021/12/20 13:19:56;;;;;;;20.90;8.00;;;;;;;6.51;60.06;99930.59;5136859;28;20175;-79
2021/12/20 13:23:03;;;;;;;22.13;7.93;;;;;;;6.62;60.14;99946.56;5152693;28;20046;-82
2021/12/20 13:25:54;;;;;;;21.35;7.95;;;;;;;6.79;59.58;99954.31;5146418;28;20082;-80
2021/12/20 13:28:47;;;;;;;23.75;7.95;;;;;;;6.89;59.47;99951.06;5143965;28;20049;-82
2021/12/20 13:31:39;;;;;;;22.10;8.57;;;;;;;6.74;61.04;99947.63;5160059;28;20505;-81
2021/12/20 13:34:30;;;;;;;17.15;6.88;;;;;;;6.84;58.70;99938.19;5132207;28;20057;-81
2021/12/20 13:37:20;;;;;;;21.80;7.28;;;;;;;6.90;58.03;99921.97;5158169;28;20057;-82